createdAt,value
2018-06-02T00:04:47.485Z,70.07
2018-06-02T00:09:40.775Z,70.24
2018-06-02T00:14:34.076Z,70.38
2018-06-02T00:19:27.521Z,70.79
2018-06-02T00:24:20.841Z,70.90
2018-06-02T00:29:14.526Z,71.08
2018-06-02T00:34:07.818Z,71.19
2018-06-02T00:39:01.158Z,71.06
2018-06-02T00:43:54.570Z,71.31
2018-06-02T00:53:40.471Z,71.84
2018-06-02T00:58:33.766Z,71.64
2018-06-02T01:03:27.058Z,72.09
2018-06-02T01:08:21.109Z,72.12
2018-06-02T01:13:14.401Z,72.45
2018-06-02T01:18:07.687Z,72.49
2018-06-02T01:23:01.778Z,72.73
2018-06-02T01:27:55.940Z,73.00
2018-06-02T01:32:49.327Z,73.35
2018-06-02T01:37:42.669Z,73.51
2018-06-02T01:42:35.997Z,73.58
2018-06-02T01:47:29.303Z,74.05
2018-06-02T01:52:23.371Z,74.14
2018-06-02T01:57:16.657Z,74.36
2018-06-02T02:02:09.959Z,74.74
2018-06-02T02:07:04.011Z,75.44
2018-06-02T02:11:57.304Z,75.63
2018-06-02T02:16:50.590Z,75.42
2018-06-02T02:21:43.898Z,74.77
2018-06-02T02:26:37.174Z,74.64
2018-06-02T02:31:30.545Z,74.76
2018-06-02T02:36:24.577Z,74.96
2018-06-02T02:41:17.877Z,74.99
2018-06-02T02:46:11.168Z,75.26
2018-06-02T02:51:04.543Z,75.24
2018-06-02T02:55:57.839Z,75.79
2018-06-02T03:00:52.322Z,75.13
2018-06-02T03:05:45.613Z,75.12
2018-06-02T03:10:38.912Z,75.03
2018-06-02T03:15:33.592Z,75.54
2018-06-02T03:20:26.964Z,75.96
2018-06-02T03:25:20.280Z,76.29
2018-06-02T03:30:14.338Z,76.33
2018-06-02T03:35:07.625Z,76.52
2018-06-02T03:40:00.923Z,76.82
2018-06-02T03:44:54.972Z,76.43
2018-06-02T03:49:49.043Z,76.08
2018-06-02T03:54:42.399Z,75.95
2018-06-02T03:59:35.661Z,74.30
2018-06-02T04:04:28.940Z,70.70
2018-06-02T04:09:22.997Z,66.71
2018-06-02T04:14:17.814Z,63.76
2018-06-02T04:19:11.109Z,61.63
2018-06-02T04:24:04.390Z,59.60
2018-06-02T04:28:57.701Z,61.73
2018-06-02T04:33:50.999Z,62.00
2018-06-02T04:38:45.156Z,58.27
2018-06-02T04:43:39.209Z,56.18
2018-06-02T04:48:32.509Z,53.37
2018-06-02T04:53:26.557Z,50.79
2018-06-02T04:58:19.848Z,49.00
2018-06-02T05:03:13.453Z,48.55
2018-06-02T05:08:06.755Z,47.74
2018-06-02T05:13:00.041Z,47.21
2018-06-02T05:17:54.097Z,47.68
2018-06-02T05:22:47.366Z,48.34
2018-06-02T05:27:40.709Z,47.49
2018-06-02T05:32:33.990Z,45.03
2018-06-02T05:37:27.289Z,43.75
2018-06-02T05:42:20.577Z,43.53
2018-06-02T05:47:13.881Z,43.16
2018-06-02T05:52:07.153Z,42.44
2018-06-02T05:57:00.475Z,39.75
2018-06-02T06:01:53.849Z,40.24
2018-06-02T06:06:47.186Z,40.63
2018-06-02T06:11:40.465Z,39.93
2018-06-02T06:16:34.900Z,41.66
2018-06-02T06:21:28.937Z,43.62
2018-06-02T06:26:22.236Z,44.87
2018-06-02T06:31:15.524Z,48.83
2018-06-02T06:36:08.805Z,48.23
2018-06-02T06:41:03.020Z,46.06
2018-06-02T06:45:57.081Z,46.16
2018-06-02T06:50:50.363Z,45.70
2018-06-02T06:55:43.652Z,44.51
2018-06-02T07:00:36.936Z,44.94
2018-06-02T07:05:30.222Z,45.67
2018-06-02T07:10:23.490Z,45.02
2018-06-02T07:15:17.558Z,44.39
2018-06-02T07:20:10.857Z,45.15
2018-06-02T07:25:04.152Z,45.52
2018-06-02T07:29:58.241Z,46.56
2018-06-02T07:34:51.529Z,47.77
2018-06-02T07:39:45.590Z,48.55
2018-06-02T07:44:38.889Z,49.42
2018-06-02T07:49:32.173Z,48.73
2018-06-02T07:54:26.232Z,49.51
2018-06-02T07:59:19.527Z,48.68
2018-06-02T08:04:12.814Z,48.01
2018-06-02T08:09:06.136Z,46.59
2018-06-02T08:13:59.428Z,46.30
2018-06-02T08:18:52.739Z,47.05
2018-06-02T08:23:46.057Z,44.93
2018-06-02T08:28:39.344Z,45.00
2018-06-02T08:33:33.544Z,44.00
2018-06-02T08:38:26.763Z,44.62
2018-06-02T08:43:20.077Z,43.10
2018-06-02T08:48:13.363Z,43.69
2018-06-02T08:53:06.763Z,44.81
2018-06-02T08:58:00.175Z,44.58
2018-06-02T09:02:57.000Z,45.30
2018-06-02T09:07:50.284Z,44.23
2018-06-02T09:12:43.638Z,42.10
2018-06-02T09:17:36.926Z,41.91
2018-06-02T09:22:30.280Z,41.99
2018-06-02T09:27:24.376Z,41.32
2018-06-02T09:32:17.713Z,40.06
2018-06-02T09:37:10.998Z,39.25
2018-06-02T09:42:04.285Z,39.83
2018-06-02T09:46:57.569Z,41.09
2018-06-02T09:51:50.881Z,40.92
2018-06-02T09:56:44.167Z,38.93
2018-06-02T10:08:37.095Z,36.69
2018-06-02T10:13:30.370Z,36.37
2018-06-02T10:18:23.657Z,35.99
2018-06-02T10:23:16.954Z,35.58
2018-06-02T10:28:10.266Z,34.65
2018-06-02T10:33:04.333Z,34.29
2018-06-02T10:37:57.617Z,34.66
2018-06-02T10:42:50.897Z,34.41
2018-06-02T10:47:44.192Z,34.53
2018-06-02T10:52:37.492Z,34.36
2018-06-02T10:57:30.808Z,33.89
2018-06-02T11:02:24.124Z,33.96
2018-06-02T11:07:18.186Z,33.50
2018-06-02T11:12:11.453Z,34.14
2018-06-02T11:17:04.771Z,34.13
2018-06-02T11:21:58.841Z,34.82
2018-06-02T11:26:52.378Z,34.36
2018-06-02T11:31:45.680Z,32.73
2018-06-02T11:36:38.997Z,34.73
2018-06-02T11:41:32.350Z,34.07
2018-06-02T11:46:25.641Z,33.37
2018-06-02T11:51:18.924Z,32.83
2018-06-02T11:56:12.236Z,33.66
2018-06-02T12:01:05.539Z,33.46
2018-06-02T12:05:58.815Z,32.35
2018-06-02T12:10:52.093Z,32.38
2018-06-02T12:15:45.385Z,31.54
2018-06-02T12:20:38.724Z,31.56
2018-06-02T12:25:32.005Z,30.78
2018-06-02T12:30:25.396Z,31.10
2018-06-02T12:35:18.887Z,31.46
2018-06-02T12:40:12.201Z,32.76
2018-06-02T12:45:05.474Z,34.24
2018-06-02T12:49:58.773Z,33.43
2018-06-02T12:54:52.096Z,32.73
2018-06-02T12:59:45.389Z,32.82
2018-06-02T13:04:39.843Z,32.23
2018-06-02T13:09:33.910Z,32.46
2018-06-02T13:14:27.238Z,33.27
2018-06-02T13:19:20.535Z,33.19
2018-06-02T13:24:13.853Z,33.47
2018-06-02T13:29:07.133Z,32.92
2018-06-02T13:34:00.451Z,33.54
2018-06-02T13:38:53.736Z,33.38
2018-06-02T13:43:47.026Z,34.50
2018-06-02T13:48:40.337Z,34.72
2018-06-02T13:53:33.668Z,35.43
2018-06-02T13:58:26.954Z,35.00
2018-06-02T14:03:21.085Z,33.95
2018-06-02T14:08:14.377Z,33.48
2018-06-02T14:13:07.657Z,35.40
2018-06-02T14:18:00.954Z,35.67
2018-06-02T14:22:55.110Z,35.29
2018-06-02T14:27:48.414Z,34.91
2018-06-02T14:32:41.700Z,35.33
2018-06-02T14:37:36.714Z,35.40
2018-06-02T14:42:30.027Z,34.23
2018-06-02T14:47:23.333Z,35.05
2018-06-02T14:52:16.674Z,34.41
2018-06-02T14:57:09.960Z,34.00
2018-06-02T15:02:03.247Z,37.79
2018-06-02T15:06:56.546Z,39.51
2018-06-02T15:11:49.868Z,39.02
2018-06-02T15:16:43.929Z,39.58
2018-06-02T15:21:37.260Z,39.54
2018-06-02T15:26:30.577Z,39.15
2018-06-02T15:31:23.976Z,39.37
2018-06-02T15:36:17.978Z,38.75
2018-06-02T15:41:14.435Z,38.45
2018-06-02T15:46:07.890Z,38.51
2018-06-02T15:51:01.239Z,37.84
2018-06-02T15:55:54.557Z,38.42
2018-06-02T16:00:47.899Z,37.09
2018-06-02T16:05:41.121Z,37.24
2018-06-02T16:10:34.442Z,36.02
2018-06-02T16:15:27.741Z,37.36
2018-06-02T16:20:21.032Z,36.61
2018-06-02T16:25:14.421Z,36.46
2018-06-02T16:30:07.706Z,35.76
2018-06-02T16:35:01.022Z,36.20
2018-06-02T16:39:54.321Z,36.41
2018-06-02T16:44:47.609Z,35.90
2018-06-02T16:49:40.906Z,36.66
2018-06-02T16:54:34.241Z,36.37
2018-06-02T16:59:27.580Z,36.54
2018-06-02T17:04:20.861Z,36.83
2018-06-02T17:09:14.232Z,38.05
2018-06-02T17:14:07.604Z,36.45
2018-06-02T17:19:01.702Z,38.28
2018-06-02T17:23:54.986Z,38.64
2018-06-02T17:28:48.285Z,38.77
2018-06-02T17:33:42.341Z,39.09
2018-06-02T17:38:35.658Z,39.02
2018-06-02T17:43:29.745Z,39.72
2018-06-02T17:48:23.814Z,39.80
2018-06-02T17:53:17.456Z,39.72
2018-06-02T17:58:10.742Z,39.51
2018-06-02T18:03:04.058Z,40.18
2018-06-02T18:07:57.348Z,39.81
2018-06-02T18:12:50.625Z,40.34
2018-06-02T18:17:43.910Z,41.05
2018-06-02T18:22:37.193Z,41.70
2018-06-02T18:27:30.531Z,42.42
2018-06-02T18:32:23.811Z,42.42
2018-06-02T18:37:17.112Z,43.51
2018-06-02T18:42:11.688Z,44.49
2018-06-02T18:47:04.987Z,45.54
2018-06-02T18:51:58.273Z,47.19
2018-06-02T18:56:51.551Z,46.00
2018-06-02T19:01:44.888Z,47.31
2018-06-02T19:06:38.182Z,46.92
2018-06-02T19:11:31.468Z,48.21
2018-06-02T19:16:24.777Z,48.50
2018-06-02T19:21:18.838Z,50.79
2018-06-02T19:26:12.146Z,49.56
2018-06-02T19:31:06.226Z,50.30
2018-06-02T19:35:59.760Z,50.20
2018-06-02T19:40:53.074Z,50.41
2018-06-02T19:45:46.338Z,50.72
2018-06-02T19:50:39.691Z,51.00
2018-06-02T19:55:34.001Z,50.90
2018-06-02T20:00:27.283Z,51.41
2018-06-02T20:05:20.591Z,51.58
2018-06-02T20:10:13.900Z,51.49
2018-06-02T20:15:07.956Z,51.94
2018-06-02T20:20:01.290Z,52.27
2018-06-02T20:24:54.586Z,52.46
2018-06-02T20:29:47.871Z,52.75
2018-06-02T20:34:41.363Z,55.13
2018-06-02T20:39:34.636Z,56.13
2018-06-02T20:44:27.946Z,56.16
2018-06-02T20:49:21.280Z,56.99
2018-06-02T20:54:14.575Z,57.37
2018-06-02T20:59:07.873Z,57.25
2018-06-02T21:04:01.185Z,56.91
2018-06-02T21:08:56.090Z,57.45
2018-06-02T21:13:50.151Z,57.66
2018-06-02T21:18:43.469Z,58.11
2018-06-02T21:23:37.532Z,58.78
2018-06-02T21:28:30.885Z,58.35
2018-06-02T21:33:24.170Z,58.88
2018-06-02T21:38:17.492Z,59.15
2018-06-02T21:43:11.534Z,59.42
2018-06-02T21:48:04.831Z,60.05
2018-06-02T21:52:58.110Z,60.87
2018-06-02T21:57:51.423Z,61.47
2018-06-02T22:02:45.461Z,61.54
2018-06-02T22:07:38.779Z,61.98
2018-06-02T22:12:32.065Z,62.22
2018-06-02T22:17:25.365Z,62.53
2018-06-02T22:22:19.426Z,62.79
2018-06-02T22:27:12.746Z,63.11
2018-06-02T22:32:06.017Z,63.00
2018-06-02T22:36:59.346Z,63.50
2018-06-02T22:41:52.642Z,63.57
2018-06-02T22:46:45.929Z,64.03
2018-06-02T22:51:57.641Z,65.31
2018-06-02T22:56:51.838Z,64.83
2018-06-02T23:01:45.166Z,65.00
2018-06-02T23:06:38.462Z,64.84
2018-06-02T23:11:31.764Z,64.32
2018-06-02T23:16:25.115Z,64.40
2018-06-02T23:21:18.445Z,64.41
2018-06-02T23:26:11.743Z,64.81
2018-06-02T23:31:05.037Z,64.76
2018-06-02T23:35:58.333Z,65.01
2018-06-02T23:40:51.618Z,65.28
2018-06-02T23:45:44.915Z,65.91
2018-06-02T23:50:38.198Z,65.73
2018-06-02T23:55:31.512Z,65.89
